createdAt,value
2022-08-26T00:00:11.100Z,7.30
2022-08-26T00:01:11.099Z,6.40
2022-08-26T00:02:11.120Z,6.40
2022-08-26T00:03:11.110Z,6.70
2022-08-26T00:04:11.196Z,6.20
2022-08-26T00:05:11.046Z,7.20
2022-08-26T00:06:11.035Z,6.70
2022-08-26T00:07:11.031Z,6.40
2022-08-26T00:08:11.009Z,7.50
2022-08-26T00:09:11.079Z,7.20
2022-08-26T00:10:10.988Z,6.70
2022-08-26T00:11:11.010Z,8.40
2022-08-26T00:12:12.274Z,7.70
2022-08-26T00:13:10.958Z,6.20
2022-08-26T00:14:10.910Z,6.70
2022-08-26T00:15:10.947Z,7.60
2022-08-26T00:16:10.938Z,6.10
2022-08-26T00:17:10.882Z,7.00
2022-08-26T00:18:16.831Z,7.70
2022-08-26T00:19:10.865Z,6.10
2022-08-26T00:20:10.832Z,6.80
2022-08-26T00:21:10.879Z,7.10
2022-08-26T00:22:10.836Z,7.40
2022-08-26T00:23:10.806Z,6.40
2022-08-26T00:24:10.783Z,6.90
2022-08-26T00:25:10.790Z,6.80
2022-08-26T00:26:11.067Z,7.30
2022-08-26T00:27:10.839Z,6.70
2022-08-26T00:28:10.911Z,6.20
2022-08-26T00:29:10.722Z,7.00
2022-08-26T00:30:10.705Z,5.90
2022-08-26T00:31:15.683Z,6.50
2022-08-26T00:32:10.677Z,8.10
2022-08-26T00:33:10.853Z,6.70
2022-08-26T00:34:11.311Z,7.70
2022-08-26T00:35:10.675Z,7.30
2022-08-26T00:36:19.865Z,5.90
2022-08-26T00:37:13.413Z,7.40
2022-08-26T00:38:10.601Z,5.80
2022-08-26T00:39:10.656Z,6.30
2022-08-26T00:40:10.607Z,7.70
2022-08-26T00:41:10.565Z,8.00
2022-08-26T00:42:10.535Z,6.80
2022-08-26T00:43:10.592Z,5.20
2022-08-26T00:44:10.530Z,7.50
2022-08-26T00:45:11.723Z,8.10
2022-08-26T00:46:10.516Z,6.30
2022-08-26T00:47:10.500Z,8.20
2022-08-26T00:48:10.454Z,7.30
2022-08-26T00:49:11.886Z,8.00
2022-08-26T00:50:10.429Z,6.00
2022-08-26T00:51:10.465Z,7.00
2022-08-26T00:52:11.958Z,7.00
2022-08-26T00:53:10.408Z,8.00
2022-08-26T00:54:10.836Z,6.20
2022-08-26T00:55:10.410Z,7.70
2022-08-26T00:56:10.350Z,7.30
2022-08-26T00:57:16.301Z,6.40
2022-08-26T00:58:10.364Z,6.90
2022-08-26T00:59:10.332Z,6.40
2022-08-26T01:00:10.296Z,7.30
2022-08-26T01:01:10.387Z,7.10
2022-08-26T01:02:19.987Z,8.50
2022-08-26T01:03:11.536Z,7.00
2022-08-26T01:04:10.242Z,6.80
2022-08-26T01:05:10.266Z,10.00
2022-08-26T01:06:12.630Z,6.90
2022-08-26T01:07:10.214Z,6.90
2022-08-26T01:08:10.193Z,7.80
2022-08-26T01:09:10.284Z,7.50
2022-08-26T01:10:10.186Z,7.00
2022-08-26T01:11:10.197Z,7.40
2022-08-26T01:12:10.141Z,7.50
2022-08-26T01:13:10.170Z,7.00
2022-08-26T01:14:10.116Z,8.40
2022-08-26T01:15:10.143Z,7.20
2022-08-26T01:16:10.118Z,6.90
2022-08-26T01:17:10.109Z,6.90
2022-08-26T01:18:10.079Z,6.10
2022-08-26T01:19:10.059Z,7.60
2022-08-26T01:20:10.051Z,6.10
2022-08-26T01:21:10.082Z,6.30
2022-08-26T01:22:10.006Z,7.30
2022-08-26T01:23:10.010Z,7.10
2022-08-26T01:24:10.313Z,8.10
2022-08-26T01:25:09.987Z,6.50
2022-08-26T01:26:19.426Z,6.20
2022-08-26T01:27:09.999Z,7.40
2022-08-26T01:28:09.935Z,7.40
2022-08-26T01:29:09.945Z,8.00
2022-08-26T01:30:09.920Z,8.50
2022-08-26T01:31:09.985Z,6.90
2022-08-26T01:32:09.882Z,6.90
2022-08-26T01:33:10.020Z,6.60
2022-08-26T01:34:09.859Z,7.30
2022-08-26T01:35:09.867Z,8.00
2022-08-26T01:36:09.820Z,7.20
2022-08-26T01:37:13.631Z,8.30
2022-08-26T01:38:09.811Z,8.10
2022-08-26T01:39:09.874Z,6.60
2022-08-26T01:40:09.803Z,6.70
2022-08-26T01:41:16.075Z,7.10
2022-08-26T01:42:10.443Z,7.30
2022-08-26T01:43:09.758Z,6.00
2022-08-26T01:44:09.911Z,8.00
2022-08-26T01:45:09.769Z,7.00
2022-08-26T01:46:09.760Z,6.80
2022-08-26T01:47:09.692Z,7.30
2022-08-26T01:48:09.659Z,8.00
2022-08-26T01:49:09.666Z,6.60
2022-08-26T01:50:09.634Z,7.70
2022-08-26T01:51:09.698Z,7.80
2022-08-26T01:52:09.628Z,7.80
2022-08-26T01:53:10.724Z,7.50
2022-08-26T01:54:11.957Z,6.90
2022-08-26T01:55:09.582Z,7.80
2022-08-26T01:56:09.551Z,7.40
2022-08-26T01:57:09.626Z,6.40
2022-08-26T01:58:09.524Z,7.90
2022-08-26T01:59:09.550Z,6.30
2022-08-26T02:00:09.502Z,6.50
2022-08-26T02:01:09.708Z,6.80
2022-08-26T02:02:09.471Z,7.10
2022-08-26T02:03:09.507Z,5.90
2022-08-26T02:04:09.469Z,8.80
2022-08-26T02:05:09.453Z,6.50
2022-08-26T02:06:10.279Z,7.90
2022-08-26T02:07:09.431Z,7.80
2022-08-26T02:08:09.389Z,6.80
2022-08-26T02:09:09.444Z,6.60
2022-08-26T02:10:09.371Z,6.70
2022-08-26T02:11:09.395Z,6.50
2022-08-26T02:12:09.341Z,6.90
2022-08-26T02:13:09.352Z,7.90
2022-08-26T02:14:09.307Z,6.90
2022-08-26T02:15:09.347Z,7.50
2022-08-26T02:16:09.348Z,7.20
2022-08-26T02:17:09.299Z,6.60
2022-08-26T02:18:09.254Z,7.30
2022-08-26T02:19:09.275Z,6.40
2022-08-26T02:20:13.227Z,8.10
2022-08-26T02:21:09.298Z,7.30
2022-08-26T02:22:09.206Z,8.00
2022-08-26T02:23:09.201Z,6.10
2022-08-26T02:24:09.200Z,6.50
2022-08-26T02:25:09.178Z,6.40
2022-08-26T02:26:09.165Z,6.90
2022-08-26T02:27:09.214Z,6.70
2022-08-26T02:28:09.143Z,7.50
2022-08-26T02:29:09.121Z,6.90
2022-08-26T02:30:09.102Z,7.10
2022-08-26T02:31:09.182Z,7.20
2022-08-26T02:32:09.094Z,7.60
2022-08-26T02:33:09.334Z,7.90
2022-08-26T02:34:09.078Z,7.10
2022-08-26T02:35:09.031Z,6.40
2022-08-26T02:36:09.065Z,7.50
2022-08-26T02:37:09.013Z,7.20
2022-08-26T02:38:10.139Z,7.30
2022-08-26T02:39:09.031Z,8.40
2022-08-26T02:40:09.043Z,6.70
2022-08-26T02:41:08.951Z,7.10
2022-08-26T02:42:08.959Z,6.70
2022-08-26T02:43:08.937Z,7.40
2022-08-26T02:44:08.945Z,6.50
2022-08-26T02:45:08.961Z,7.90
2022-08-26T02:46:08.895Z,7.80
2022-08-26T02:47:08.903Z,7.70
2022-08-26T02:48:08.872Z,8.90
2022-08-26T02:49:08.843Z,6.40
2022-08-26T02:50:08.865Z,6.40
2022-08-26T02:51:08.897Z,8.20
2022-08-26T02:52:08.831Z,7.90
2022-08-26T02:53:09.022Z,7.10
2022-08-26T02:54:08.812Z,7.20
2022-08-26T02:55:08.765Z,7.40
2022-08-26T02:56:08.786Z,7.40
2022-08-26T02:57:08.791Z,6.20
2022-08-26T02:58:08.775Z,6.90
2022-08-26T02:59:08.737Z,7.00
2022-08-26T03:00:08.720Z,7.60
2022-08-26T03:01:08.737Z,8.50
2022-08-26T03:02:08.735Z,7.00
2022-08-26T03:03:08.872Z,7.90
2022-08-26T03:04:08.662Z,7.20
2022-08-26T03:05:08.630Z,7.00
2022-08-26T03:06:08.669Z,7.20
2022-08-26T03:07:08.605Z,6.80
2022-08-26T03:08:08.633Z,9.00
2022-08-26T03:09:08.629Z,6.60
2022-08-26T03:10:09.011Z,7.50
2022-08-26T03:11:08.552Z,8.00
2022-08-26T03:12:08.555Z,8.70
2022-08-26T03:13:08.656Z,8.20
2022-08-26T03:14:08.539Z,6.40
2022-08-26T03:15:17.430Z,8.40
2022-08-26T03:16:08.532Z,6.80
2022-08-26T03:17:08.476Z,7.80
2022-08-26T03:18:08.495Z,6.80
2022-08-26T03:19:08.464Z,8.80
2022-08-26T03:20:08.453Z,8.00
2022-08-26T03:21:08.459Z,9.70
2022-08-26T03:22:08.440Z,8.90
2022-08-26T03:23:08.577Z,7.70
2022-08-26T03:24:08.391Z,7.80
2022-08-26T03:25:08.390Z,7.40
2022-08-26T03:26:08.431Z,7.30
2022-08-26T03:27:08.374Z,7.80
2022-08-26T03:28:09.551Z,7.50
2022-08-26T03:29:08.323Z,8.80
2022-08-26T03:30:08.311Z,7.60
2022-08-26T03:31:08.360Z,8.30
2022-08-26T03:32:08.286Z,7.60
2022-08-26T03:33:08.401Z,6.80
2022-08-26T03:34:08.262Z,7.40
2022-08-26T03:35:08.236Z,6.90
2022-08-26T03:36:08.245Z,8.50
2022-08-26T03:37:08.216Z,6.90
2022-08-26T03:38:08.271Z,8.20
2022-08-26T03:39:08.193Z,7.30
2022-08-26T03:40:08.243Z,6.90
2022-08-26T03:41:08.152Z,7.90
2022-08-26T03:42:08.191Z,8.00
2022-08-26T03:43:09.487Z,7.10
2022-08-26T03:44:08.224Z,7.70
2022-08-26T03:45:08.118Z,7.80
2022-08-26T03:46:08.191Z,7.40
2022-08-26T03:47:08.083Z,5.90
2022-08-26T03:48:08.099Z,7.90
2022-08-26T03:49:08.042Z,8.40
2022-08-26T03:50:08.098Z,7.60
2022-08-26T03:51:08.045Z,7.40
2022-08-26T03:52:08.029Z,7.10
2022-08-26T03:53:13.233Z,7.10
2022-08-26T03:54:08.307Z,8.00
2022-08-26T03:55:07.964Z,8.10
2022-08-26T03:56:07.998Z,8.60
2022-08-26T03:57:07.956Z,7.20
2022-08-26T03:58:07.944Z,8.30
2022-08-26T03:59:07.929Z,7.30
2022-08-26T04:00:07.912Z,8.60
2022-08-26T04:01:07.883Z,8.00
2022-08-26T04:02:08.611Z,8.00
2022-08-26T04:03:09.947Z,6.60
2022-08-26T04:04:07.841Z,7.10
2022-08-26T04:05:07.782Z,7.10
2022-08-26T04:06:07.779Z,7.10
2022-08-26T04:07:07.756Z,7.40
2022-08-26T04:08:07.803Z,8.60
2022-08-26T04:09:07.768Z,7.60
2022-08-26T04:10:07.724Z,7.70
2022-08-26T04:11:07.713Z,7.80
2022-08-26T04:12:07.704Z,6.90
2022-08-26T04:13:07.842Z,7.00
2022-08-26T04:14:07.743Z,8.10
2022-08-26T04:15:07.667Z,7.80
2022-08-26T04:16:07.662Z,6.70
2022-08-26T04:17:07.634Z,7.10
2022-08-26T04:18:07.622Z,7.30
2022-08-26T04:19:07.699Z,6.80
2022-08-26T04:20:07.668Z,8.20
2022-08-26T04:21:08.000Z,7.40
2022-08-26T04:22:07.563Z,7.80
2022-08-26T04:23:07.711Z,7.40
2022-08-26T04:24:11.381Z,6.90
2022-08-26T04:25:07.506Z,7.80
2022-08-26T04:26:07.624Z,6.40
2022-08-26T04:27:08.205Z,7.50
2022-08-26T04:28:07.486Z,8.00
2022-08-26T04:29:07.462Z,8.30
2022-08-26T04:30:07.477Z,7.20
2022-08-26T04:31:07.515Z,7.70
2022-08-26T04:32:07.500Z,8.20
2022-08-26T04:33:13.001Z,8.40
2022-08-26T04:34:07.407Z,7.30
2022-08-26T04:35:07.377Z,9.00
2022-08-26T04:36:07.448Z,7.70
2022-08-26T04:37:07.377Z,7.10
2022-08-26T04:38:07.391Z,7.50
2022-08-26T04:39:07.342Z,8.80
2022-08-26T04:40:07.342Z,7.40
2022-08-26T04:41:07.300Z,7.10
2022-08-26T04:42:07.303Z,7.10
2022-08-26T04:43:07.388Z,7.10
2022-08-26T04:44:07.321Z,9.70
2022-08-26T04:45:09.995Z,6.80
2022-08-26T04:46:07.271Z,8.90
2022-08-26T04:47:07.239Z,8.20
2022-08-26T04:48:07.245Z,7.40
2022-08-26T04:49:07.199Z,7.00
2022-08-26T04:50:07.489Z,6.50
2022-08-26T04:51:07.184Z,8.70
2022-08-26T04:52:07.164Z,8.50
2022-08-26T04:53:07.315Z,9.10
2022-08-26T04:54:07.255Z,8.20
2022-08-26T04:55:08.442Z,9.10
2022-08-26T04:56:07.144Z,7.20
2022-08-26T04:57:07.101Z,7.40
2022-08-26T04:58:07.079Z,8.60
2022-08-26T04:59:07.271Z,7.60
2022-08-26T05:00:07.066Z,7.80
2022-08-26T05:01:07.049Z,6.70
2022-08-26T05:02:07.335Z,7.20
2022-08-26T05:03:07.208Z,9.10
2022-08-26T05:04:08.208Z,8.30
2022-08-26T05:05:07.010Z,7.40
2022-08-26T05:06:06.981Z,8.30
2022-08-26T05:07:06.963Z,7.50
2022-08-26T05:08:06.988Z,7.40
2022-08-26T05:09:06.943Z,8.20
2022-08-26T05:10:08.739Z,7.50
2022-08-26T05:11:06.929Z,8.30
2022-08-26T05:12:06.931Z,8.00
2022-08-26T05:13:11.154Z,7.50
2022-08-26T05:14:06.923Z,7.70
2022-08-26T05:15:06.871Z,7.80
2022-08-26T05:16:06.893Z,8.80
2022-08-26T05:17:06.854Z,7.60
2022-08-26T05:18:06.854Z,6.80
2022-08-26T05:19:06.803Z,8.00
2022-08-26T05:20:06.832Z,7.30
2022-08-26T05:21:06.783Z,7.00
2022-08-26T05:22:06.778Z,8.20
2022-08-26T05:23:06.918Z,7.60
2022-08-26T05:24:06.740Z,8.00
2022-08-26T05:25:06.712Z,7.30
2022-08-26T05:26:06.749Z,7.10
2022-08-26T05:27:11.451Z,8.00
2022-08-26T05:28:06.687Z,7.10
2022-08-26T05:29:06.657Z,7.70
2022-08-26T05:30:06.664Z,7.50
2022-08-26T05:31:06.691Z,8.20
2022-08-26T05:32:06.671Z,6.80
2022-08-26T05:33:06.619Z,6.70
2022-08-26T05:34:06.990Z,7.50
2022-08-26T05:35:08.883Z,8.50
2022-08-26T05:36:06.586Z,8.80
2022-08-26T05:37:06.559Z,7.70
2022-08-26T05:38:11.804Z,7.90
2022-08-26T05:39:06.527Z,7.20
2022-08-26T05:40:06.583Z,7.50
2022-08-26T05:41:06.503Z,7.10
2022-08-26T05:42:06.497Z,8.30
2022-08-26T05:43:06.477Z,7.50
2022-08-26T05:44:06.540Z,8.00
2022-08-26T05:45:06.459Z,6.60
2022-08-26T05:46:06.640Z,7.50
2022-08-26T05:47:06.432Z,7.80
2022-08-26T05:48:06.435Z,8.00
2022-08-26T05:49:06.414Z,7.20
2022-08-26T05:50:06.427Z,8.00
2022-08-26T05:51:06.390Z,6.90
2022-08-26T05:52:06.377Z,8.10
2022-08-26T05:53:06.397Z,8.00
2022-08-26T05:54:06.363Z,8.00
2022-08-26T05:55:06.329Z,7.50
2022-08-26T05:56:06.391Z,7.10
2022-08-26T05:57:06.293Z,7.90
2022-08-26T05:58:06.303Z,7.20
2022-08-26T05:59:06.258Z,7.30
2022-08-26T06:00:06.268Z,7.00
2022-08-26T06:01:06.253Z,8.50
2022-08-26T06:02:06.316Z,8.60
2022-08-26T06:03:06.286Z,8.20
2022-08-26T06:04:06.217Z,8.10
2022-08-26T06:05:06.183Z,8.20
2022-08-26T06:06:06.184Z,8.20
2022-08-26T06:07:06.179Z,8.30
2022-08-26T06:08:06.188Z,7.80
2022-08-26T06:09:06.123Z,8.70
2022-08-26T06:10:31.049Z,8.10
2022-08-26T06:11:06.113Z,8.40
2022-08-26T06:12:06.103Z,9.50
2022-08-26T06:13:11.872Z,8.40
2022-08-26T06:14:06.117Z,8.30
2022-08-26T06:15:06.046Z,8.40
2022-08-26T06:16:06.063Z,8.10
2022-08-26T06:17:06.032Z,7.70
2022-08-26T06:18:06.026Z,9.00
2022-08-26T06:19:10.979Z,7.60
2022-08-26T06:20:06.034Z,8.60
2022-08-26T06:21:05.969Z,7.40
2022-08-26T06:22:05.967Z,7.70
2022-08-26T06:23:05.944Z,8.40
2022-08-26T06:24:05.941Z,6.60
2022-08-26T06:25:05.924Z,7.50
2022-08-26T06:26:05.949Z,8.20
2022-08-26T06:27:05.890Z,7.90
2022-08-26T06:28:05.889Z,8.60
2022-08-26T06:29:05.863Z,7.70
2022-08-26T06:30:05.865Z,8.20
2022-08-26T06:31:05.944Z,7.50
2022-08-26T06:32:05.880Z,9.40
2022-08-26T06:33:05.818Z,6.70
2022-08-26T06:34:10.389Z,8.50
2022-08-26T06:35:05.788Z,8.80
2022-08-26T06:36:05.943Z,7.40
2022-08-26T06:37:05.803Z,7.70
2022-08-26T06:38:05.793Z,8.70
2022-08-26T06:39:05.743Z,9.30
2022-08-26T06:40:05.782Z,7.60
2022-08-26T06:41:05.713Z,9.30
2022-08-26T06:42:06.121Z,7.40
2022-08-26T06:43:05.688Z,8.60
2022-08-26T06:44:05.758Z,8.90
2022-08-26T06:45:05.669Z,9.40
2022-08-26T06:46:05.747Z,8.70
2022-08-26T06:47:05.638Z,8.10
2022-08-26T06:48:05.615Z,8.70
2022-08-26T06:49:05.614Z,8.20
2022-08-26T06:50:05.643Z,8.70
2022-08-26T06:51:05.615Z,8.80
2022-08-26T06:52:05.568Z,10.40
2022-08-26T06:53:05.587Z,8.30
2022-08-26T06:54:05.549Z,6.70
2022-08-26T06:55:05.543Z,8.30
2022-08-26T06:56:05.602Z,6.70
2022-08-26T06:57:05.515Z,7.20
2022-08-26T06:58:05.483Z,7.50
2022-08-26T06:59:07.159Z,8.10
2022-08-26T07:00:05.467Z,6.00
2022-08-26T07:01:11.193Z,8.20
2022-08-26T07:02:05.521Z,8.70
2022-08-26T07:03:05.533Z,8.90
2022-08-26T07:05:00.477Z,8.10
2022-08-26T07:06:01.432Z,7.70
2022-08-26T07:07:01.428Z,9.10
2022-08-26T07:08:01.431Z,8.40
2022-08-26T07:09:01.400Z,8.00
2022-08-26T07:10:01.593Z,7.70
2022-08-26T07:11:01.374Z,8.50
2022-08-26T07:12:01.420Z,7.60
2022-08-26T07:13:01.364Z,7.30
2022-08-26T07:14:01.410Z,7.20
2022-08-26T07:15:01.339Z,7.10
2022-08-26T07:16:02.949Z,8.20
2022-08-26T07:17:01.305Z,7.30
2022-08-26T07:18:01.271Z,7.40
2022-08-26T07:19:01.291Z,7.70
2022-08-26T07:20:01.300Z,7.60
2022-08-26T07:21:01.260Z,6.60
2022-08-26T07:22:01.227Z,7.20
2022-08-26T07:23:01.472Z,7.30
2022-08-26T07:24:01.700Z,10.30
2022-08-26T07:25:01.347Z,7.60
2022-08-26T07:26:01.223Z,9.00
2022-08-26T07:27:01.171Z,7.80
2022-08-26T07:28:01.174Z,10.00
2022-08-26T07:29:01.145Z,8.80
2022-08-26T07:30:01.134Z,7.70
2022-08-26T07:31:01.235Z,7.30
2022-08-26T07:32:01.123Z,9.30
2022-08-26T07:33:01.094Z,10.00
2022-08-26T07:34:01.054Z,9.60
2022-08-26T07:35:01.093Z,10.30
2022-08-26T07:36:01.030Z,10.90
2022-08-26T07:37:01.069Z,10.00
2022-08-26T07:38:01.078Z,10.30
2022-08-26T07:39:01.013Z,10.40
2022-08-26T07:40:01.014Z,8.80
2022-08-26T07:41:01.077Z,9.70
2022-08-26T07:42:00.952Z,11.20
2022-08-26T07:43:01.032Z,9.50
2022-08-26T07:44:01.047Z,9.90
2022-08-26T07:45:00.925Z,8.50
2022-08-26T07:46:00.900Z,8.60
2022-08-26T07:47:00.904Z,9.60
2022-08-26T07:48:00.872Z,9.60
2022-08-26T07:49:00.961Z,7.50
2022-08-26T07:50:00.896Z,8.90
2022-08-26T07:51:00.897Z,9.60
2022-08-26T07:52:00.996Z,8.10
2022-08-26T07:53:00.827Z,7.80
2022-08-26T07:54:00.808Z,7.80
2022-08-26T07:55:00.800Z,7.20
2022-08-26T07:56:00.830Z,8.90
2022-08-26T07:57:00.785Z,7.30
2022-08-26T07:58:00.758Z,8.30
2022-08-26T07:59:00.750Z,7.60
2022-08-26T08:00:00.740Z,7.60
2022-08-26T08:01:00.810Z,10.80
2022-08-26T08:02:00.828Z,10.00
2022-08-26T08:03:00.726Z,7.80
2022-08-26T08:04:00.669Z,9.10
2022-08-26T08:05:00.807Z,9.40
2022-08-26T08:06:00.689Z,8.60
2022-08-26T08:07:00.645Z,7.40
2022-08-26T08:08:00.859Z,9.00
2022-08-26T08:09:00.629Z,8.60
2022-08-26T08:10:00.601Z,6.40
2022-08-26T08:11:00.592Z,8.60
2022-08-26T08:12:00.555Z,7.30
2022-08-26T08:13:00.589Z,6.20
2022-08-26T08:14:00.566Z,7.00
2022-08-26T08:15:00.556Z,7.10
2022-08-26T08:16:00.522Z,6.40
2022-08-26T08:17:00.657Z,5.80
2022-08-26T08:18:01.012Z,7.80
2022-08-26T08:19:01.156Z,8.40
2022-08-26T08:20:05.567Z,8.40
2022-08-26T08:21:21.133Z,7.50
2022-08-26T08:22:00.466Z,7.20
2022-08-26T08:23:00.477Z,6.40
2022-08-26T08:24:00.424Z,6.10
2022-08-26T08:25:00.436Z,6.40
2022-08-26T08:26:00.440Z,7.10
2022-08-26T08:27:00.404Z,7.30
2022-08-26T08:28:00.372Z,6.50
2022-08-26T08:29:00.371Z,8.90
2022-08-26T08:30:00.340Z,7.10
2022-08-26T08:31:00.467Z,7.60
2022-08-26T08:32:00.426Z,9.10
2022-08-26T08:33:00.337Z,7.90
2022-08-26T08:34:00.275Z,8.20
2022-08-26T08:35:00.308Z,8.50
2022-08-26T08:36:00.260Z,8.40
2022-08-26T08:37:00.272Z,7.70
2022-08-26T08:38:00.255Z,6.90
2022-08-26T08:39:00.231Z,7.30
2022-08-26T08:40:00.324Z,7.30
2022-08-26T08:41:00.207Z,8.60
2022-08-26T08:42:00.181Z,6.90
2022-08-26T08:43:00.232Z,8.50
2022-08-26T08:44:00.201Z,7.80
2022-08-26T08:45:00.159Z,7.10
2022-08-26T08:46:00.156Z,6.90
2022-08-26T08:47:00.138Z,8.30
2022-08-26T08:48:00.109Z,7.80
2022-08-26T08:49:00.118Z,8.10
2022-08-26T08:50:00.194Z,9.50
2022-08-26T08:51:00.099Z,7.60
2022-08-26T08:52:00.062Z,7.20
2022-08-26T08:53:00.062Z,7.00
2022-08-26T08:54:00.028Z,6.70
2022-08-26T08:55:00.034Z,7.50
2022-08-26T08:56:00.038Z,8.40
2022-08-26T08:57:00.011Z,6.40
2022-08-26T08:58:02.423Z,7.80
2022-08-26T08:58:59.999Z,7.20
2022-08-26T08:59:59.946Z,6.10
2022-08-26T09:01:00.023Z,7.10
2022-08-26T09:02:00.053Z,6.80
2022-08-26T09:02:59.946Z,7.90
2022-08-26T09:03:59.917Z,6.70
2022-08-26T09:04:59.924Z,8.40
2022-08-26T09:05:59.869Z,7.60
2022-08-26T09:06:59.884Z,7.10
2022-08-26T09:07:59.916Z,7.10
2022-08-26T09:08:59.852Z,7.30
2022-08-26T09:09:59.820Z,8.10
2022-08-26T09:10:59.851Z,8.90
2022-08-26T09:11:59.794Z,8.70
2022-08-26T09:12:59.805Z,7.00
2022-08-26T09:14:00.356Z,7.60
2022-08-26T09:14:59.809Z,8.20
2022-08-26T09:15:59.766Z,6.60
2022-08-26T09:16:59.812Z,8.30
2022-08-26T09:17:59.744Z,6.70
2022-08-26T09:18:59.788Z,6.90
2022-08-26T09:19:59.728Z,8.50
2022-08-26T09:20:59.724Z,6.80
2022-08-26T09:21:59.674Z,7.50
2022-08-26T09:22:59.726Z,8.10
2022-08-26T09:23:59.645Z,7.20
2022-08-26T09:24:59.672Z,9.00
2022-08-26T09:25:59.693Z,6.40
2022-08-26T09:26:59.622Z,9.40
2022-08-26T09:27:59.622Z,7.60
2022-08-26T09:28:59.626Z,8.20
2022-08-26T09:29:59.606Z,8.10
2022-08-26T09:30:59.662Z,6.60
2022-08-26T09:31:59.617Z,7.00
2022-08-26T09:32:59.550Z,7.40
2022-08-26T09:33:59.532Z,7.30
2022-08-26T09:34:59.547Z,8.90
2022-08-26T09:35:59.494Z,7.10
2022-08-26T09:36:59.529Z,8.50
2022-08-26T09:37:59.534Z,8.30
2022-08-26T09:38:59.493Z,7.20
2022-08-26T09:39:59.477Z,9.50
2022-08-26T09:40:59.693Z,7.80
2022-08-26T09:41:59.442Z,7.70
2022-08-26T09:42:59.440Z,7.60
2022-08-26T09:43:59.435Z,8.90
2022-08-26T09:44:59.483Z,10.50
2022-08-26T09:45:59.873Z,9.10
2022-08-26T09:46:59.384Z,9.10
2022-08-26T09:48:01.386Z,7.60
2022-08-26T09:48:59.349Z,8.70
2022-08-26T09:49:59.370Z,8.10
2022-08-26T09:50:59.328Z,9.00
2022-08-26T09:51:59.293Z,9.90
2022-08-26T09:52:59.312Z,9.90
2022-08-26T09:53:59.340Z,8.30
2022-08-26T09:54:59.297Z,8.80
2022-08-26T09:55:59.287Z,7.80
2022-08-26T09:56:59.264Z,8.10
2022-08-26T09:58:03.608Z,8.90
2022-08-26T09:58:59.227Z,10.20
2022-08-26T09:59:59.193Z,9.70
2022-08-26T10:00:59.404Z,8.60
2022-08-26T10:01:59.289Z,12.70
2022-08-26T10:02:59.167Z,11.30
2022-08-26T10:03:59.176Z,9.50
2022-08-26T10:04:59.178Z,8.30
2022-08-26T10:05:59.144Z,12.40
2022-08-26T10:06:59.143Z,8.40
2022-08-26T10:07:59.603Z,11.70
2022-08-26T10:08:59.125Z,11.10
2022-08-26T10:09:59.066Z,11.00
2022-08-26T10:10:59.087Z,10.30
2022-08-26T10:11:59.056Z,10.40
2022-08-26T10:12:59.085Z,11.70
2022-08-26T10:13:59.071Z,11.40
2022-08-26T10:14:59.048Z,10.90
2022-08-26T10:15:58.988Z,11.40
2022-08-26T10:16:59.041Z,8.90
2022-08-26T10:17:58.992Z,10.10
2022-08-26T10:19:00.293Z,11.90
2022-08-26T10:19:59.029Z,9.60
2022-08-26T10:20:58.982Z,11.40
2022-08-26T10:21:58.909Z,10.70
2022-08-26T10:22:58.927Z,9.90
2022-08-26T10:23:58.896Z,9.10
2022-08-26T10:24:58.920Z,11.40
2022-08-26T10:25:59.321Z,9.30
2022-08-26T10:26:58.904Z,10.40
2022-08-26T10:27:58.878Z,9.60
2022-08-26T10:28:58.841Z,11.90
2022-08-26T10:29:58.810Z,9.40
2022-08-26T10:30:58.835Z,11.30
2022-08-26T10:32:03.635Z,10.00
2022-08-26T10:32:58.820Z,12.20
2022-08-26T10:34:00.320Z,10.50
2022-08-26T10:34:58.784Z,11.10
2022-08-26T10:35:58.746Z,10.10
2022-08-26T10:37:13.761Z,11.60
2022-08-26T10:37:58.766Z,12.40
2022-08-26T10:38:58.728Z,11.70
2022-08-26T10:39:59.294Z,12.90
2022-08-26T10:40:58.690Z,11.80
2022-08-26T10:41:58.669Z,10.80
2022-08-26T10:42:58.685Z,13.30
2022-08-26T10:43:58.716Z,12.60
2022-08-26T10:44:58.883Z,10.70
2022-08-26T10:45:58.657Z,13.60
2022-08-26T10:46:58.621Z,11.80
2022-08-26T10:47:58.590Z,9.50
2022-08-26T10:48:59.997Z,9.40
2022-08-26T10:50:02.877Z,11.60
2022-08-26T10:50:58.626Z,10.20
2022-08-26T10:51:58.573Z,9.00
2022-08-26T10:52:58.520Z,9.30
2022-08-26T10:53:58.538Z,9.10
2022-08-26T10:54:58.501Z,9.80
2022-08-26T10:55:58.525Z,13.20
2022-08-26T10:56:58.471Z,9.60
2022-08-26T10:57:58.518Z,8.10
2022-08-26T10:58:58.446Z,10.00
2022-08-26T10:59:58.457Z,9.20
2022-08-26T11:00:58.538Z,9.10
2022-08-26T11:01:58.469Z,9.60
2022-08-26T11:02:58.488Z,10.50
2022-08-26T11:03:58.496Z,11.10
2022-08-26T11:04:58.387Z,9.50
2022-08-26T11:05:58.390Z,9.50
2022-08-26T11:06:58.372Z,8.80
2022-08-26T11:07:58.469Z,9.90
2022-08-26T11:08:58.319Z,11.20
2022-08-26T11:09:58.333Z,9.40
2022-08-26T11:10:59.035Z,10.30
2022-08-26T11:11:58.334Z,10.60
2022-08-26T11:12:58.297Z,11.50
2022-08-26T11:13:58.323Z,8.60
2022-08-26T11:14:59.190Z,8.90
2022-08-26T11:15:58.285Z,11.10
2022-08-26T11:16:58.290Z,10.60
2022-08-26T11:17:58.217Z,9.40
2022-08-26T11:18:58.219Z,10.20
2022-08-26T11:20:01.936Z,9.40
2022-08-26T11:20:58.181Z,10.80
2022-08-26T11:21:58.176Z,10.00
2022-08-26T11:22:59.511Z,9.40
2022-08-26T11:23:58.184Z,11.50
2022-08-26T11:24:58.134Z,9.10
2022-08-26T11:25:58.205Z,9.00
2022-08-26T11:26:58.119Z,10.70
2022-08-26T11:27:58.112Z,11.00
2022-08-26T11:28:58.071Z,8.50
2022-08-26T11:29:58.068Z,10.00
2022-08-26T11:30:58.490Z,10.30
2022-08-26T11:31:58.269Z,8.60
2022-08-26T11:32:58.030Z,9.40
2022-08-26T11:33:58.055Z,10.10
2022-08-26T11:34:58.354Z,10.30
2022-08-26T11:35:58.022Z,9.70
2022-08-26T11:36:57.970Z,9.80
2022-08-26T11:37:57.992Z,11.20
2022-08-26T11:38:57.960Z,9.10
2022-08-26T11:39:58.017Z,8.90
2022-08-26T11:40:57.911Z,9.40
2022-08-26T11:41:58.000Z,9.30
2022-08-26T11:42:57.899Z,9.40
2022-08-26T11:43:57.907Z,9.60
2022-08-26T11:44:58.259Z,10.50
2022-08-26T11:45:57.924Z,13.00
2022-08-26T11:46:57.844Z,10.50
2022-08-26T11:47:57.862Z,11.90
2022-08-26T11:48:57.848Z,10.40
2022-08-26T11:49:57.849Z,11.80
2022-08-26T11:50:57.778Z,10.90
2022-08-26T11:51:57.856Z,9.10
2022-08-26T11:52:57.798Z,8.70
2022-08-26T11:53:57.756Z,10.40
2022-08-26T11:54:57.777Z,12.90
2022-08-26T11:55:57.764Z,14.20
2022-08-26T11:56:57.704Z,10.30
2022-08-26T11:57:57.743Z,10.40
2022-08-26T11:58:57.752Z,10.40
2022-08-26T11:59:57.702Z,12.40
2022-08-26T12:00:57.667Z,10.00
2022-08-26T12:01:57.661Z,12.00
2022-08-26T12:02:57.648Z,9.50
2022-08-26T12:03:58.483Z,10.00
2022-08-26T12:04:57.608Z,10.30
2022-08-26T12:05:57.623Z,11.70
2022-08-26T12:06:57.610Z,10.50
2022-08-26T12:07:57.600Z,10.40
2022-08-26T12:08:57.566Z,10.80
2022-08-26T12:09:57.582Z,12.50
2022-08-26T12:10:57.530Z,12.60
2022-08-26T12:11:58.014Z,12.90
2022-08-26T12:12:57.515Z,10.70
2022-08-26T12:13:57.506Z,11.40
2022-08-26T12:14:57.521Z,9.80
2022-08-26T12:15:57.483Z,13.50
2022-08-26T12:16:57.475Z,13.50
2022-08-26T12:17:57.452Z,12.40
2022-08-26T12:18:57.439Z,10.50
2022-08-26T12:19:57.448Z,11.60
2022-08-26T12:20:57.486Z,12.10
2022-08-26T12:21:57.415Z,13.00
2022-08-26T12:22:57.397Z,10.80
2022-08-26T12:23:57.389Z,12.00
2022-08-26T12:24:57.404Z,9.60
2022-08-26T12:25:57.376Z,11.90
2022-08-26T12:26:57.322Z,13.70
2022-08-26T12:27:57.326Z,11.20
2022-08-26T12:28:57.598Z,12.00
2022-08-26T12:29:57.310Z,13.60
2022-08-26T12:30:57.309Z,11.20
2022-08-26T12:31:57.425Z,10.30
2022-08-26T12:32:58.772Z,14.40
2022-08-26T12:33:57.262Z,13.40
2022-08-26T12:34:57.249Z,10.70
2022-08-26T12:35:57.233Z,10.20
2022-08-26T12:37:57.202Z,12.30
2022-08-26T12:38:58.390Z,12.70
2022-08-26T12:39:57.223Z,12.20
2022-08-26T12:40:57.157Z,11.30
2022-08-26T12:41:57.166Z,12.40
2022-08-26T12:42:57.150Z,12.80
2022-08-26T12:43:57.139Z,11.20
2022-08-26T12:44:57.101Z,11.70
2022-08-26T12:45:57.140Z,14.50
2022-08-26T12:46:57.066Z,11.80
2022-08-26T12:47:57.123Z,13.30
2022-08-26T12:48:57.040Z,12.90
2022-08-26T12:49:57.060Z,13.00
2022-08-26T12:50:57.039Z,13.40
2022-08-26T12:51:57.048Z,12.30
2022-08-26T12:52:56.998Z,14.20
2022-08-26T12:53:57.046Z,11.50
2022-08-26T12:54:57.219Z,13.50
2022-08-26T12:55:56.969Z,11.30
2022-08-26T12:56:56.948Z,10.20
2022-08-26T12:57:56.964Z,13.30
2022-08-26T12:58:56.996Z,12.80
2022-08-26T12:59:56.930Z,11.00
2022-08-26T13:00:57.141Z,12.00
2022-08-26T13:01:57.034Z,11.40
2022-08-26T13:02:56.885Z,13.90
2022-08-26T13:03:56.894Z,13.50
2022-08-26T13:05:00.575Z,11.20
2022-08-26T13:05:56.856Z,11.90
2022-08-26T13:06:56.849Z,11.00
2022-08-26T13:07:56.844Z,11.90
2022-08-26T13:08:56.784Z,13.00
2022-08-26T13:09:56.825Z,12.40
2022-08-26T13:10:56.782Z,16.30
2022-08-26T13:11:56.784Z,13.20
2022-08-26T13:12:56.731Z,11.20
2022-08-26T13:13:56.759Z,11.60
2022-08-26T13:14:56.710Z,10.50